This is the latest recevied weather packets stored in our database for station/object N1ICS-1. If no packets are shown the sender has not sent any weather packets the latest 10 day(s).
| Time | Temp. | Humidity | Pressure | Rain* | Wind** | Luminosity | Snow |
|---|---|---|---|---|---|---|---|
| 1788565502 | 26.11° C | 94% | 1015.8 hPa | 0 mm | - | 21 W/m² | - |
| 1788565201 | 26.67° C | 90% | 1015.9 hPa | 0 mm | - | 26 W/m² | - |
| 1788564902 | 26.67° C | 89% | 1016.1 hPa | 0 mm | - | 31 W/m² | - |
| 1788564602 | 27.22° C | 89% | 1016 hPa | 0 mm | - | 38 W/m² | - |
| 1788564302 | 27.22° C | 88% | 1016.1 hPa | 0 mm | - | 44 W/m² | - |
| 1788564002 | 27.78° C | 87% | 1016.1 hPa | 0 mm | - | 50 W/m² | - |
| 1788563702 | 27.78° C | 85% | 1016 hPa | 0 mm | - | 60 W/m² | - |
| 1788563402 | 28.33° C | 85% | 1015.8 hPa | 0 mm | - | 69 W/m² | - |
| 1788563101 | 28.89° C | 82% | 1015.8 hPa | 0 mm | - | 79 W/m² | - |
| 1788562802 | 28.33° C | 82% | 1015.7 hPa | 0 mm | - | 90 W/m² | - |
| 1788561902 | 27.78° C | 83% | 1015.7 hPa | 0 mm | - | 122 W/m² | - |
| 1788561602 | 28.33° C | 83% | 1015.4 hPa | 0 mm | - | 133 W/m² | - |
| 1788561301 | 27.78° C | 84% | 1015.6 hPa | 0 mm | - | 144 W/m² | - |
| 1788561002 | 28.33° C | 83% | 1015.7 hPa | 0 mm | - | 155 W/m² | - |
| 1788560402 | 27.78° C | 82% | 1015.4 hPa | 0 mm | - | 183 W/m² | - |
| 1788559802 | 28.89° C | 81% | 1015.5 hPa | 0 mm | - | 219 W/m² | - |
| 1788558901 | 28.33° C | 82% | 1015.4 hPa | 0 mm | - | 287 W/m² | - |
| 1788558602 | 28.33° C | 82% | 1015.7 hPa | 0 mm | - | 268 W/m² | - |
| 1788558302 | 27.78° C | 84% | 1015.3 hPa | 0 mm | - | 276 W/m² | - |
| 1788557402 | 27.78° C | 83% | 1015.2 hPa | 0 mm | - | 426 W/m² | - |
| 1788557102 | 27.22° C | 84% | 1015 hPa | 0 mm | - | 131 W/m² | - |
| 1788556502 | 28.33° C | 82% | 1014.9 hPa | 0 mm | - | 469 W/m² | - |
| 1788556202 | 28.33° C | 83% | 1014.9 hPa | 0 mm | - | 483 W/m² | - |
| 1788555902 | 27.78° C | 83% | 1015 hPa | 0 mm | - | 570 W/m² | - |
| 1788555602 | 27.78° C | 84% | 1015.3 hPa | 0 mm | - | 503 W/m² | - |
* Rain latest hour (hover to see other rain measurements)
** Current wind speed in m/s (hover to see current wind gust speed)